New Braunfels, TX (78132)

11:23 AM CST on February 13, 2016 (GMT -0600)
Wood Rd | | Change Station
CLOSE
Current Station
Personal Weather Station
Location: New Braunfels, TX
Elevation: 646 ft
Nearby Weather Stations

Elev 646 ft 29.71 °N, 98.14 °W | Updated 24 seconds ago

Overcast
Overcast
68.0 °F
Feels Like 68.0 °F
N
5.8
Wind Variable Wind from South

Today
High -- | Low -- °F
--% Chance of Precip.
Yesterday
High -- | Low -- °F
Precip. -- in
Pressure 30.35 in
Visibility 10.0 miles
Clouds Mostly Cloudy 1200 ft
Overcast 2600 ft
Dew Point 54 °F
Humidity 62%
Rainfall 0.00 in
Snow Depth Not available.
7:14 AM 6:19 PM
Waxing Crescent, 32% visible
SPECI KBAZ 131658Z 18008KT 10SM BKN012 OVC026 18/13 A3035 RMK AO2 T01830128
Pressure 30.35 in
Visibility 10.0 miles
Clouds Mostly Cloudy 1200 ft
Overcast 2600 ft
Dew Point 54 °F
Humidity 62%
Rainfall 0.00 in
Snow Depth Not available.
7:14 AM 6:19 PM
Waxing Crescent, 32% visible
SPECI KBAZ 131658Z 18008KT 10SM BKN012 OVC026 18/13 A3035 RMK AO2 T01830128

10-Day Weather Forecast

Almanac

Astronomy

Feb. 13, 2016 Rise Set
Actual Time
Civil Twilight
Nautical Twilight
Astronomical Twilight
Moon
Length of Visible Light
Length of Day
Tomorrow will be .
, % of the Moon is Illuminated

Today's Extremes

State Highs State Lows

Community

WunderPhotos

Upload Photos

1,892,620 photos uploaded!

WunderBlog® & News

Nearby

Air Quality

  Air Quality AQ Index Pollutant
Not available.

Snow Depth

Station Depth Elevation

Earthquake Activity

City Distance Mag. Time & Date
Minimum magnitude displayed is 2.5.

Coastal Water Temperatures

Place Temperature

Stations

Nearby Weather Stations

Station Location Temp. Windchill Dew Point Humidity Wind Precip. Elev Updated Type
                   

Watches & Warnings

There are currently no watches in effect.